sensor_id;sensor_type;location;lat;lon;timestamp;P1;durP1;ratioP1;P2;durP2;ratioP2
56469;SDS011;42374;51.464;-2.590;2022-09-29T00:01:36;7.25;;;1.67;;
56469;SDS011;42374;51.464;-2.590;2022-09-29T00:04:02;6.45;;;2.70;;
56469;SDS011;42374;51.464;-2.590;2022-09-29T00:06:28;2.08;;;1.10;;
56469;SDS011;42374;51.464;-2.590;2022-09-29T00:08:54;1.15;;;0.60;;
56469;SDS011;42374;51.464;-2.590;2022-09-29T00:11:22;1.20;;;0.70;;
56469;SDS011;42374;51.464;-2.590;2022-09-29T00:13:49;1.60;;;0.68;;
56469;SDS011;42374;51.464;-2.590;2022-09-29T00:16:15;2.17;;;0.45;;
56469;SDS011;42374;51.464;-2.590;2022-09-29T00:18:41;0.77;;;0.30;;
56469;SDS011;42374;51.464;-2.590;2022-09-29T00:21:09;0.60;;;0.40;;
56469;SDS011;42374;51.464;-2.590;2022-09-29T00:23:36;0.75;;;0.43;;
56469;SDS011;42374;51.464;-2.590;2022-09-29T00:26:07;1.50;;;0.80;;
56469;SDS011;42374;51.464;-2.590;2022-09-29T00:28:33;1.00;;;0.30;;
56469;SDS011;42374;51.464;-2.590;2022-09-29T00:31:00;0.80;;;0.50;;
56469;SDS011;42374;51.464;-2.590;2022-09-29T00:33:28;1.17;;;0.50;;
56469;SDS011;42374;51.464;-2.590;2022-09-29T00:36:04;7.32;;;3.20;;
56469;SDS011;42374;51.464;-2.590;2022-09-29T00:38:31;5.50;;;2.63;;
56469;SDS011;42374;51.464;-2.590;2022-09-29T00:40:58;2.58;;;1.00;;
56469;SDS011;42374;51.464;-2.590;2022-09-29T00:48:35;1.88;;;0.80;;
56469;SDS011;42374;51.464;-2.590;2022-09-29T00:51:01;1.30;;;0.40;;
56469;SDS011;42374;51.464;-2.590;2022-09-29T00:53:29;2.03;;;0.43;;
56469;SDS011;42374;51.464;-2.590;2022-09-29T00:55:56;1.40;;;0.50;;
56469;SDS011;42374;51.464;-2.590;2022-09-29T00:58:26;0.70;;;0.45;;
56469;SDS011;42374;51.464;-2.590;2022-09-29T01:00:54;2.22;;;0.93;;
56469;SDS011;42374;51.464;-2.590;2022-09-29T01:03:20;1.73;;;0.80;;
56469;SDS011;42374;51.464;-2.590;2022-09-29T01:05:51;3.08;;;0.70;;
56469;SDS011;42374;51.464;-2.590;2022-09-29T01:08:21;3.38;;;0.50;;
56469;SDS011;42374;51.464;-2.590;2022-09-29T01:10:48;1.95;;;1.10;;
56469;SDS011;42374;51.464;-2.590;2022-09-29T01:13:19;2.30;;;1.15;;
56469;SDS011;42374;51.464;-2.590;2022-09-29T01:15:45;1.48;;;1.10;;
56469;SDS011;42374;51.464;-2.590;2022-09-29T01:18:11;2.70;;;0.70;;
56469;SDS011;42374;51.464;-2.590;2022-09-29T01:20:40;2.42;;;0.50;;
56469;SDS011;42374;51.464;-2.590;2022-09-29T01:36:34;0.50;;;0.38;;
56469;SDS011;42374;51.464;-2.590;2022-09-29T01:41:41;1.17;;;0.35;;
56469;SDS011;42374;51.464;-2.590;2022-09-29T01:47:12;1.40;;;0.50;;
56469;SDS011;42374;51.464;-2.590;2022-09-29T01:49:46;0.70;;;0.43;;
56469;SDS011;42374;51.464;-2.590;2022-09-29T01:52:22;0.50;;;0.30;;
56469;SDS011;42374;51.464;-2.590;2022-09-29T01:54:59;1.80;;;0.95;;
56469;SDS011;42374;51.464;-2.590;2022-09-29T01:57:28;1.77;;;0.52;;
56469;SDS011;42374;51.464;-2.590;2022-09-29T01:59:58;0.80;;;0.40;;
56469;SDS011;42374;51.464;-2.590;2022-09-29T02:02:31;1.63;;;0.60;;
56469;SDS011;42374;51.464;-2.590;2022-09-29T02:05:00;1.08;;;0.60;;
56469;SDS011;42374;51.464;-2.590;2022-09-29T02:07:30;1.40;;;0.50;;
56469;SDS011;42374;51.464;-2.590;2022-09-29T02:10:03;2.42;;;0.60;;
56469;SDS011;42374;51.464;-2.590;2022-09-29T02:12:31;3.47;;;0.98;;
56469;SDS011;42374;51.464;-2.590;2022-09-29T02:15:00;1.67;;;0.40;;
56469;SDS011;42374;51.464;-2.590;2022-09-29T02:17:33;1.95;;;0.50;;
56469;SDS011;42374;51.464;-2.590;2022-09-29T02:20:01;1.52;;;0.55;;
56469;SDS011;42374;51.464;-2.590;2022-09-29T02:22:27;1.05;;;0.52;;
56469;SDS011;42374;51.464;-2.590;2022-09-29T02:27:40;3.47;;;0.60;;
56469;SDS011;42374;51.464;-2.590;2022-09-29T02:30:07;3.05;;;0.88;;
56469;SDS011;42374;51.464;-2.590;2022-09-29T02:32:34;1.83;;;0.40;;
56469;SDS011;42374;51.464;-2.590;2022-09-29T02:35:00;2.17;;;0.40;;
56469;SDS011;42374;51.464;-2.590;2022-09-29T02:45:20;2.25;;;0.40;;
56469;SDS011;42374;51.464;-2.590;2022-09-29T02:52:45;1.67;;;0.22;;
56469;SDS011;42374;51.464;-2.590;2022-09-29T02:55:17;2.70;;;0.30;;
56469;SDS011;42374;51.464;-2.590;2022-09-29T03:00:43;3.78;;;0.30;;
56469;SDS011;42374;51.464;-2.590;2022-09-29T03:03:09;0.80;;;0.30;;
56469;SDS011;42374;51.464;-2.590;2022-09-29T03:05:35;0.82;;;0.20;;
56469;SDS011;42374;51.464;-2.590;2022-09-29T03:08:01;0.35;;;0.20;;
56469;SDS011;42374;51.464;-2.590;2022-09-29T03:10:27;0.73;;;0.30;;
56469;SDS011;42374;51.464;-2.590;2022-09-29T03:12:54;0.80;;;0.30;;
56469;SDS011;42374;51.464;-2.590;2022-09-29T03:15:20;2.10;;;0.40;;
56469;SDS011;42374;51.464;-2.590;2022-09-29T03:17:46;1.90;;;0.57;;
56469;SDS011;42374;51.464;-2.590;2022-09-29T03:20:12;2.83;;;0.30;;
56469;SDS011;42374;51.464;-2.590;2022-09-29T03:22:38;2.78;;;0.30;;
56469;SDS011;42374;51.464;-2.590;2022-09-29T03:25:04;1.98;;;0.73;;
56469;SDS011;42374;51.464;-2.590;2022-09-29T03:27:31;4.95;;;0.40;;
56469;SDS011;42374;51.464;-2.590;2022-09-29T03:29:57;0.57;;;0.20;;
56469;SDS011;42374;51.464;-2.590;2022-09-29T03:32:23;0.65;;;0.20;;
56469;SDS011;42374;51.464;-2.590;2022-09-29T03:34:50;0.50;;;0.20;;
56469;SDS011;42374;51.464;-2.590;2022-09-29T03:37:16;1.75;;;0.20;;
56469;SDS011;42374;51.464;-2.590;2022-09-29T03:39:42;2.10;;;0.30;;
56469;SDS011;42374;51.464;-2.590;2022-09-29T03:42:08;0.50;;;0.25;;
56469;SDS011;42374;51.464;-2.590;2022-09-29T03:44:34;0.55;;;0.10;;
56469;SDS011;42374;51.464;-2.590;2022-09-29T03:47:00;2.20;;;0.30;;
56469;SDS011;42374;51.464;-2.590;2022-09-29T03:49:26;1.75;;;0.40;;
56469;SDS011;42374;51.464;-2.590;2022-09-29T03:51:53;0.73;;;0.25;;
56469;SDS011;42374;51.464;-2.590;2022-09-29T03:54:21;1.38;;;0.20;;
56469;SDS011;42374;51.464;-2.590;2022-09-29T03:56:50;0.63;;;0.20;;
56469;SDS011;42374;51.464;-2.590;2022-09-29T03:59:16;0.40;;;0.30;;
56469;SDS011;42374;51.464;-2.590;2022-09-29T04:01:42;1.63;;;0.30;;
56469;SDS011;42374;51.464;-2.590;2022-09-29T04:04:09;0.30;;;0.10;;
56469;SDS011;42374;51.464;-2.590;2022-09-29T04:06:36;3.47;;;0.40;;
56469;SDS011;42374;51.464;-2.590;2022-09-29T04:09:02;2.35;;;0.30;;
56469;SDS011;42374;51.464;-2.590;2022-09-29T04:11:28;0.98;;;0.40;;
56469;SDS011;42374;51.464;-2.590;2022-09-29T04:13:54;1.40;;;0.40;;
56469;SDS011;42374;51.464;-2.590;2022-09-29T04:16:20;0.77;;;0.30;;
56469;SDS011;42374;51.464;-2.590;2022-09-29T04:18:46;1.40;;;0.40;;
56469;SDS011;42374;51.464;-2.590;2022-09-29T04:21:12;0.57;;;0.32;;
56469;SDS011;42374;51.464;-2.590;2022-09-29T04:23:39;0.77;;;0.40;;
56469;SDS011;42374;51.464;-2.590;2022-09-29T04:26:05;0.85;;;0.40;;
56469;SDS011;42374;51.464;-2.590;2022-09-29T04:28:32;0.50;;;0.32;;
56469;SDS011;42374;51.464;-2.590;2022-09-29T04:30:58;1.80;;;0.40;;
56469;SDS011;42374;51.464;-2.590;2022-09-29T04:33:24;1.08;;;0.40;;
56469;SDS011;42374;51.464;-2.590;2022-09-29T04:35:50;1.75;;;0.50;;
56469;SDS011;42374;51.464;-2.590;2022-09-29T04:38:16;0.52;;;0.40;;
56469;SDS011;42374;51.464;-2.590;2022-09-29T04:40:42;0.73;;;0.40;;
56469;SDS011;42374;51.464;-2.590;2022-09-29T04:43:09;0.93;;;0.40;;
56469;SDS011;42374;51.464;-2.590;2022-09-29T04:45:35;0.52;;;0.40;;
56469;SDS011;42374;51.464;-2.590;2022-09-29T04:48:01;2.05;;;0.47;;
56469;SDS011;42374;51.464;-2.590;2022-09-29T04:50:27;0.50;;;0.45;;
56469;SDS011;42374;51.464;-2.590;2022-09-29T04:52:54;1.08;;;0.50;;
56469;SDS011;42374;51.464;-2.590;2022-09-29T04:55:20;1.05;;;0.40;;
56469;SDS011;42374;51.464;-2.590;2022-09-29T04:57:46;0.82;;;0.25;;
56469;SDS011;42374;51.464;-2.590;2022-09-29T05:00:13;1.65;;;0.40;;
56469;SDS011;42374;51.464;-2.590;2022-09-29T05:02:39;1.38;;;0.40;;
56469;SDS011;42374;51.464;-2.590;2022-09-29T05:05:06;0.77;;;0.30;;
56469;SDS011;42374;51.464;-2.590;2022-09-29T05:07:35;1.15;;;0.40;;
56469;SDS011;42374;51.464;-2.590;2022-09-29T05:10:02;0.55;;;0.30;;
56469;SDS011;42374;51.464;-2.590;2022-09-29T05:12:29;0.52;;;0.30;;
56469;SDS011;42374;51.464;-2.590;2022-09-29T05:14:55;0.52;;;0.38;;
56469;SDS011;42374;51.464;-2.590;2022-09-29T05:17:21;2.60;;;0.52;;
56469;SDS011;42374;51.464;-2.590;2022-09-29T05:19:47;1.38;;;0.40;;
56469;SDS011;42374;51.464;-2.590;2022-09-29T05:22:13;1.33;;;0.40;;
56469;SDS011;42374;51.464;-2.590;2022-09-29T05:24:39;2.88;;;0.60;;
56469;SDS011;42374;51.464;-2.590;2022-09-29T05:27:05;0.63;;;0.60;;
56469;SDS011;42374;51.464;-2.590;2022-09-29T05:29:31;1.45;;;0.60;;
56469;SDS011;42374;51.464;-2.590;2022-09-29T05:31:57;1.55;;;0.70;;
56469;SDS011;42374;51.464;-2.590;2022-09-29T05:34:23;0.98;;;0.70;;
56469;SDS011;42374;51.464;-2.590;2022-09-29T05:36:49;1.95;;;0.75;;
56469;SDS011;42374;51.464;-2.590;2022-09-29T05:39:15;2.03;;;0.85;;
56469;SDS011;42374;51.464;-2.590;2022-09-29T05:41:41;1.80;;;0.80;;
56469;SDS011;42374;51.464;-2.590;2022-09-29T05:44:07;1.30;;;0.90;;
56469;SDS011;42374;51.464;-2.590;2022-09-29T05:46:33;1.55;;;0.80;;
56469;SDS011;42374;51.464;-2.590;2022-09-29T05:48:59;1.50;;;0.77;;
56469;SDS011;42374;51.464;-2.590;2022-09-29T05:51:26;2.15;;;0.80;;
56469;SDS011;42374;51.464;-2.590;2022-09-29T05:53:52;2.83;;;0.90;;
56469;SDS011;42374;51.464;-2.590;2022-09-29T05:56:20;1.10;;;0.95;;
56469;SDS011;42374;51.464;-2.590;2022-09-29T05:58:47;1.80;;;0.80;;
56469;SDS011;42374;51.464;-2.590;2022-09-29T06:01:14;2.30;;;0.90;;
56469;SDS011;42374;51.464;-2.590;2022-09-29T06:03:42;1.60;;;1.00;;
56469;SDS011;42374;51.464;-2.590;2022-09-29T06:06:10;4.20;;;1.10;;
56469;SDS011;42374;51.464;-2.590;2022-09-29T06:08:36;2.85;;;1.10;;
56469;SDS011;42374;51.464;-2.590;2022-09-29T06:11:07;1.58;;;1.15;;
56469;SDS011;42374;51.464;-2.590;2022-09-29T06:16:18;3.50;;;1.10;;
56469;SDS011;42374;51.464;-2.590;2022-09-29T06:18:45;1.50;;;1.20;;
56469;SDS011;42374;51.464;-2.590;2022-09-29T06:21:13;2.15;;;1.00;;
56469;SDS011;42374;51.464;-2.590;2022-09-29T06:26:24;3.42;;;1.40;;
56469;SDS011;42374;51.464;-2.590;2022-09-29T06:28:51;2.67;;;1.25;;
56469;SDS011;42374;51.464;-2.590;2022-09-29T06:31:18;1.98;;;1.20;;
56469;SDS011;42374;51.464;-2.590;2022-09-29T06:36:37;2.40;;;1.40;;
56469;SDS011;42374;51.464;-2.590;2022-09-29T06:39:22;2.58;;;1.33;;
56469;SDS011;42374;51.464;-2.590;2022-09-29T06:41:49;2.90;;;1.13;;
56469;SDS011;42374;51.464;-2.590;2022-09-29T06:49:31;3.13;;;1.60;;
56469;SDS011;42374;51.464;-2.590;2022-09-29T06:51:57;3.67;;;1.80;;
56469;SDS011;42374;51.464;-2.590;2022-09-29T06:57:09;3.20;;;1.33;;
56469;SDS011;42374;51.464;-2.590;2022-09-29T06:59:36;2.58;;;1.38;;
56469;SDS011;42374;51.464;-2.590;2022-09-29T07:02:02;3.72;;;1.40;;
56469;SDS011;42374;51.464;-2.590;2022-09-29T07:07:31;2.22;;;1.40;;
56469;SDS011;42374;51.464;-2.590;2022-09-29T07:09:57;3.90;;;1.60;;
56469;SDS011;42374;51.464;-2.590;2022-09-29T07:12:23;1.80;;;1.40;;
56469;SDS011;42374;51.464;-2.590;2022-09-29T07:14:51;2.15;;;1.50;;
56469;SDS011;42374;51.464;-2.590;2022-09-29T07:17:17;2.45;;;1.48;;
56469;SDS011;42374;51.464;-2.590;2022-09-29T07:19:43;5.25;;;1.52;;
56469;SDS011;42374;51.464;-2.590;2022-09-29T07:22:09;2.60;;;1.60;;
56469;SDS011;42374;51.464;-2.590;2022-09-29T07:24:36;2.28;;;1.38;;
56469;SDS011;42374;51.464;-2.590;2022-09-29T07:27:05;2.08;;;1.70;;
56469;SDS011;42374;51.464;-2.590;2022-09-29T07:29:32;3.28;;;1.45;;
56469;SDS011;42374;51.464;-2.590;2022-09-29T07:31:59;2.88;;;1.50;;
56469;SDS011;42374;51.464;-2.590;2022-09-29T07:34:25;2.17;;;1.40;;
56469;SDS011;42374;51.464;-2.590;2022-09-29T07:36:51;1.90;;;1.45;;
56469;SDS011;42374;51.464;-2.590;2022-09-29T07:39:18;3.30;;;1.63;;
56469;SDS011;42374;51.464;-2.590;2022-09-29T07:41:45;2.45;;;1.70;;
56469;SDS011;42374;51.464;-2.590;2022-09-29T07:44:14;2.60;;;1.90;;
56469;SDS011;42374;51.464;-2.590;2022-09-29T07:46:40;4.97;;;2.17;;
56469;SDS011;42374;51.464;-2.590;2022-09-29T07:49:06;3.25;;;1.92;;
56469;SDS011;42374;51.464;-2.590;2022-09-29T07:51:32;2.63;;;1.80;;
56469;SDS011;42374;51.464;-2.590;2022-09-29T07:56:44;5.75;;;2.72;;
56469;SDS011;42374;51.464;-2.590;2022-09-29T07:59:10;4.30;;;2.47;;
56469;SDS011;42374;51.464;-2.590;2022-09-29T08:01:36;6.22;;;2.58;;
56469;SDS011;42374;51.464;-2.590;2022-09-29T08:04:02;3.70;;;2.70;;
56469;SDS011;42374;51.464;-2.590;2022-09-29T08:06:28;8.20;;;3.05;;
56469;SDS011;42374;51.464;-2.590;2022-09-29T08:08:54;3.28;;;2.83;;
56469;SDS011;42374;51.464;-2.590;2022-09-29T08:11:21;3.53;;;2.80;;
56469;SDS011;42374;51.464;-2.590;2022-09-29T08:13:51;3.65;;;3.00;;
56469;SDS011;42374;51.464;-2.590;2022-09-29T08:16:17;7.78;;;3.33;;
56469;SDS011;42374;51.464;-2.590;2022-09-29T08:18:44;7.22;;;3.33;;
56469;SDS011;42374;51.464;-2.590;2022-09-29T08:21:10;6.40;;;3.85;;
56469;SDS011;42374;51.464;-2.590;2022-09-29T08:23:38;4.40;;;3.42;;
56469;SDS011;42374;51.464;-2.590;2022-09-29T08:26:09;5.43;;;3.53;;
56469;SDS011;42374;51.464;-2.590;2022-09-29T08:28:36;5.18;;;3.33;;
56469;SDS011;42374;51.464;-2.590;2022-09-29T08:31:02;5.45;;;3.45;;
56469;SDS011;42374;51.464;-2.590;2022-09-29T08:33:29;5.07;;;3.55;;
56469;SDS011;42374;51.464;-2.590;2022-09-29T08:35:58;5.30;;;3.90;;
56469;SDS011;42374;51.464;-2.590;2022-09-29T08:38:25;8.52;;;4.55;;
56469;SDS011;42374;51.464;-2.590;2022-09-29T08:40:51;8.77;;;3.83;;
56469;SDS011;42374;51.464;-2.590;2022-09-29T08:45:53;6.07;;;4.03;;
56469;SDS011;42374;51.464;-2.590;2022-09-29T08:48:25;5.72;;;5.05;;
56469;SDS011;42374;51.464;-2.590;2022-09-29T08:50:56;7.70;;;5.22;;
56469;SDS011;42374;51.464;-2.590;2022-09-29T08:53:24;6.40;;;5.40;;
56469;SDS011;42374;51.464;-2.590;2022-09-29T08:55:53;6.85;;;4.65;;
56469;SDS011;42374;51.464;-2.590;2022-09-29T08:58:19;6.78;;;5.28;;
56469;SDS011;42374;51.464;-2.590;2022-09-29T09:05:50;8.60;;;5.35;;
56469;SDS011;42374;51.464;-2.590;2022-09-29T09:18:39;8.35;;;4.80;;
56469;SDS011;42374;51.464;-2.590;2022-09-29T09:21:09;4.50;;;3.70;;
56469;SDS011;42374;51.464;-2.590;2022-09-29T09:28:56;5.65;;;3.78;;
56469;SDS011;42374;51.464;-2.590;2022-09-29T09:31:45;4.38;;;3.00;;
56469;SDS011;42374;51.464;-2.590;2022-09-29T09:34:15;6.47;;;3.08;;
56469;SDS011;42374;51.464;-2.590;2022-09-29T09:36:53;5.30;;;2.92;;
56469;SDS011;42374;51.464;-2.590;2022-09-29T09:39:21;3.85;;;1.90;;
56469;SDS011;42374;51.464;-2.590;2022-09-29T09:41:50;5.32;;;2.30;;
56469;SDS011;42374;51.464;-2.590;2022-09-29T09:47:26;15.10;;;2.20;;
56469;SDS011;42374;51.464;-2.590;2022-09-29T09:49:58;4.70;;;2.33;;
56469;SDS011;42374;51.464;-2.590;2022-09-29T09:52:30;3.50;;;1.98;;
56469;SDS011;42374;51.464;-2.590;2022-09-29T09:54:58;5.15;;;2.38;;
56469;SDS011;42374;51.464;-2.590;2022-09-29T10:02:37;4.15;;;2.25;;
56469;SDS011;42374;51.464;-2.590;2022-09-29T10:05:09;4.82;;;2.50;;
56469;SDS011;42374;51.464;-2.590;2022-09-29T10:07:36;6.60;;;2.70;;
56469;SDS011;42374;51.464;-2.590;2022-09-29T10:10:02;7.45;;;2.22;;
56469;SDS011;42374;51.464;-2.590;2022-09-29T10:12:32;2.88;;;2.00;;
56469;SDS011;42374;51.464;-2.590;2022-09-29T10:15:00;5.47;;;1.95;;
56469;SDS011;42374;51.464;-2.590;2022-09-29T10:17:30;3.15;;;2.10;;
56469;SDS011;42374;51.464;-2.590;2022-09-29T10:22:28;4.13;;;2.10;;
56469;SDS011;42374;51.464;-2.590;2022-09-29T10:27:40;6.47;;;2.42;;
56469;SDS011;42374;51.464;-2.590;2022-09-29T10:30:24;3.13;;;2.30;;
56469;SDS011;42374;51.464;-2.590;2022-09-29T10:36:07;3.33;;;2.20;;
56469;SDS011;42374;51.464;-2.590;2022-09-29T10:38:34;3.40;;;1.98;;
56469;SDS011;42374;51.464;-2.590;2022-09-29T10:41:05;2.85;;;1.80;;
56469;SDS011;42374;51.464;-2.590;2022-09-29T10:46:34;4.43;;;1.88;;
56469;SDS011;42374;51.464;-2.590;2022-09-29T10:51:51;3.42;;;1.70;;
56469;SDS011;42374;51.464;-2.590;2022-09-29T10:54:20;3.35;;;1.80;;
56469;SDS011;42374;51.464;-2.590;2022-09-29T10:56:47;3.95;;;1.70;;
56469;SDS011;42374;51.464;-2.590;2022-09-29T10:59:14;3.47;;;1.52;;
56469;SDS011;42374;51.464;-2.590;2022-09-29T11:01:45;5.43;;;1.73;;
56469;SDS011;42374;51.464;-2.590;2022-09-29T11:07:18;6.03;;;1.42;;
56469;SDS011;42374;51.464;-2.590;2022-09-29T11:09:44;3.40;;;1.58;;
56469;SDS011;42374;51.464;-2.590;2022-09-29T11:17:59;6.65;;;1.77;;
56469;SDS011;42374;51.464;-2.590;2022-09-29T11:20:27;2.38;;;1.38;;
56469;SDS011;42374;51.464;-2.590;2022-09-29T11:28:44;3.72;;;1.27;;
56469;SDS011;42374;51.464;-2.590;2022-09-29T11:31:26;1.88;;;1.05;;
56469;SDS011;42374;51.464;-2.590;2022-09-29T11:39:44;13.77;;;2.35;;
56469;SDS011;42374;51.464;-2.590;2022-09-29T11:48:16;3.47;;;2.08;;
56469;SDS011;42374;51.464;-2.590;2022-09-29T11:50:48;4.95;;;2.65;;
56469;SDS011;42374;51.464;-2.590;2022-09-29T12:06:51;3.58;;;2.35;;
56469;SDS011;42374;51.464;-2.590;2022-09-29T12:11:59;7.15;;;2.42;;
56469;SDS011;42374;51.464;-2.590;2022-09-29T12:17:26;3.15;;;1.92;;
56469;SDS011;42374;51.464;-2.590;2022-09-29T12:20:38;12.68;;;2.38;;
56469;SDS011;42374;51.464;-2.590;2022-09-29T12:22:44;5.50;;;2.00;;
56469;SDS011;42374;51.464;-2.590;2022-09-29T12:25:12;5.22;;;1.90;;
56469;SDS011;42374;51.464;-2.590;2022-09-29T12:27:40;3.33;;;1.98;;
56469;SDS011;42374;51.464;-2.590;2022-09-29T12:30:17;4.93;;;2.45;;
56469;SDS011;42374;51.464;-2.590;2022-09-29T12:47:49;4.00;;;2.38;;
56469;SDS011;42374;51.464;-2.590;2022-09-29T12:50:17;4.45;;;2.22;;
56469;SDS011;42374;51.464;-2.590;2022-09-29T12:56:03;3.63;;;2.40;;
56469;SDS011;42374;51.464;-2.590;2022-09-29T13:01:39;5.32;;;2.35;;
56469;SDS011;42374;51.464;-2.590;2022-09-29T13:06:35;6.07;;;3.08;;
56469;SDS011;42374;51.464;-2.590;2022-09-29T13:17:29;4.82;;;2.80;;
56469;SDS011;42374;51.464;-2.590;2022-09-29T13:28:02;3.42;;;2.40;;
56469;SDS011;42374;51.464;-2.590;2022-09-29T13:30:38;5.38;;;2.65;;
56469;SDS011;42374;51.464;-2.590;2022-09-29T13:35:54;3.58;;;2.13;;
56469;SDS011;42374;51.464;-2.590;2022-09-29T13:46:51;4.97;;;2.35;;
56469;SDS011;42374;51.464;-2.590;2022-09-29T13:49:27;4.05;;;2.63;;
56469;SDS011;42374;51.464;-2.590;2022-09-29T13:52:04;5.15;;;2.92;;
56469;SDS011;42374;51.464;-2.590;2022-09-29T13:54:45;4.47;;;2.70;;
56469;SDS011;42374;51.464;-2.590;2022-09-29T13:57:23;6.75;;;2.65;;
56469;SDS011;42374;51.464;-2.590;2022-09-29T14:16:43;5.68;;;2.90;;
56469;SDS011;42374;51.464;-2.590;2022-09-29T14:21:47;4.13;;;2.33;;
56469;SDS011;42374;51.464;-2.590;2022-09-29T14:36:03;4.72;;;2.38;;
56469;SDS011;42374;51.464;-2.590;2022-09-29T14:38:40;5.25;;;2.97;;
56469;SDS011;42374;51.464;-2.590;2022-09-29T14:41:41;3.67;;;2.38;;
56469;SDS011;42374;51.464;-2.590;2022-09-29T14:44:53;6.20;;;3.88;;
56469;SDS011;42374;51.464;-2.590;2022-09-29T15:15:40;7.03;;;2.97;;
56469;SDS011;42374;51.464;-2.590;2022-09-29T15:21:05;4.78;;;2.50;;
56469;SDS011;42374;51.464;-2.590;2022-09-29T15:26:39;3.00;;;2.00;;
56469;SDS011;42374;51.464;-2.590;2022-09-29T15:29:06;3.17;;;2.20;;
56469;SDS011;42374;51.464;-2.590;2022-09-29T15:31:34;4.90;;;2.60;;
56469;SDS011;42374;51.464;-2.590;2022-09-29T15:37:05;3.85;;;2.42;;
56469;SDS011;42374;51.464;-2.590;2022-09-29T15:39:42;3.33;;;2.10;;
56469;SDS011;42374;51.464;-2.590;2022-09-29T15:42:16;3.42;;;2.03;;
56469;SDS011;42374;51.464;-2.590;2022-09-29T15:47:34;4.32;;;2.17;;
56469;SDS011;42374;51.464;-2.590;2022-09-29T15:50:21;4.00;;;2.40;;
56469;SDS011;42374;51.464;-2.590;2022-09-29T15:55:23;4.80;;;2.20;;
56469;SDS011;42374;51.464;-2.590;2022-09-29T15:57:52;3.50;;;2.00;;
56469;SDS011;42374;51.464;-2.590;2022-09-29T16:05:33;3.38;;;2.00;;
56469;SDS011;42374;51.464;-2.590;2022-09-29T16:08:02;7.50;;;2.15;;
56469;SDS011;42374;51.464;-2.590;2022-09-29T16:10:30;4.60;;;2.10;;
56469;SDS011;42374;51.464;-2.590;2022-09-29T16:12:58;2.70;;;1.80;;
56469;SDS011;42374;51.464;-2.590;2022-09-29T16:15:30;5.93;;;2.08;;
56469;SDS011;42374;51.464;-2.590;2022-09-29T16:18:00;2.88;;;2.00;;
56469;SDS011;42374;51.464;-2.590;2022-09-29T16:20:28;4.90;;;2.50;;
56469;SDS011;42374;51.464;-2.590;2022-09-29T16:23:06;4.93;;;2.85;;
56469;SDS011;42374;51.464;-2.590;2022-09-29T16:25:33;3.00;;;2.05;;
56469;SDS011;42374;51.464;-2.590;2022-09-29T16:28:02;7.53;;;2.63;;
56469;SDS011;42374;51.464;-2.590;2022-09-29T16:30:35;5.85;;;2.58;;
56469;SDS011;42374;51.464;-2.590;2022-09-29T16:33:19;5.90;;;2.17;;
56469;SDS011;42374;51.464;-2.590;2022-09-29T16:35:46;4.45;;;2.25;;
56469;SDS011;42374;51.464;-2.590;2022-09-29T16:38:30;4.25;;;2.17;;
56469;SDS011;42374;51.464;-2.590;2022-09-29T16:41:41;6.22;;;2.42;;
56469;SDS011;42374;51.464;-2.590;2022-09-29T16:46:59;3.20;;;2.25;;
56469;SDS011;42374;51.464;-2.590;2022-09-29T16:51:53;3.70;;;2.17;;
56469;SDS011;42374;51.464;-2.590;2022-09-29T17:00:11;4.25;;;1.83;;
56469;SDS011;42374;51.464;-2.590;2022-09-29T17:02:37;3.92;;;2.28;;
56469;SDS011;42374;51.464;-2.590;2022-09-29T17:05:04;6.00;;;2.10;;
56469;SDS011;42374;51.464;-2.590;2022-09-29T17:07:36;4.20;;;2.33;;
56469;SDS011;42374;51.464;-2.590;2022-09-29T17:10:04;3.03;;;2.20;;
56469;SDS011;42374;51.464;-2.590;2022-09-29T17:12:32;8.43;;;2.28;;
56469;SDS011;42374;51.464;-2.590;2022-09-29T17:15:11;3.83;;;2.33;;
56469;SDS011;42374;51.464;-2.590;2022-09-29T17:17:42;5.82;;;2.97;;
56469;SDS011;42374;51.464;-2.590;2022-09-29T17:20:13;5.10;;;3.05;;
56469;SDS011;42374;51.464;-2.590;2022-09-29T17:22:43;5.05;;;2.95;;
56469;SDS011;42374;51.464;-2.590;2022-09-29T17:25:09;5.60;;;2.83;;
56469;SDS011;42374;51.464;-2.590;2022-09-29T17:27:36;5.18;;;3.00;;
56469;SDS011;42374;51.464;-2.590;2022-09-29T17:30:22;4.20;;;2.75;;
56469;SDS011;42374;51.464;-2.590;2022-09-29T17:35:53;5.93;;;2.88;;
56469;SDS011;42374;51.464;-2.590;2022-09-29T17:38:19;7.88;;;3.05;;
56469;SDS011;42374;51.464;-2.590;2022-09-29T17:40:55;6.43;;;3.63;;
56469;SDS011;42374;51.464;-2.590;2022-09-29T17:43:23;6.60;;;3.38;;
56469;SDS011;42374;51.464;-2.590;2022-09-29T17:45:49;6.43;;;4.07;;
56469;SDS011;42374;51.464;-2.590;2022-09-29T17:48:16;4.75;;;2.60;;
56469;SDS011;42374;51.464;-2.590;2022-09-29T17:50:46;4.10;;;2.45;;
56469;SDS011;42374;51.464;-2.590;2022-09-29T17:53:12;5.05;;;2.92;;
56469;SDS011;42374;51.464;-2.590;2022-09-29T17:55:39;4.75;;;2.80;;
56469;SDS011;42374;51.464;-2.590;2022-09-29T17:58:06;8.60;;;3.08;;
56469;SDS011;42374;51.464;-2.590;2022-09-29T18:00:33;6.25;;;3.10;;
56469;SDS011;42374;51.464;-2.590;2022-09-29T18:03:08;14.20;;;3.42;;
56469;SDS011;42374;51.464;-2.590;2022-09-29T18:05:37;6.35;;;4.00;;
56469;SDS011;42374;51.464;-2.590;2022-09-29T18:08:03;8.55;;;3.80;;
56469;SDS011;42374;51.464;-2.590;2022-09-29T18:10:38;7.00;;;4.35;;
56469;SDS011;42374;51.464;-2.590;2022-09-29T18:15:32;6.93;;;3.40;;
56469;SDS011;42374;51.464;-2.590;2022-09-29T18:17:59;4.38;;;2.88;;
56469;SDS011;42374;51.464;-2.590;2022-09-29T18:20:34;5.68;;;3.08;;
56469;SDS011;42374;51.464;-2.590;2022-09-29T18:26:04;7.82;;;3.78;;
56469;SDS011;42374;51.464;-2.590;2022-09-29T18:28:31;5.63;;;3.38;;
56469;SDS011;42374;51.464;-2.590;2022-09-29T18:31:02;7.50;;;3.13;;
56469;SDS011;42374;51.464;-2.590;2022-09-29T18:33:31;7.85;;;3.13;;
56469;SDS011;42374;51.464;-2.590;2022-09-29T18:35:58;8.63;;;4.90;;
56469;SDS011;42374;51.464;-2.590;2022-09-29T18:38:27;9.50;;;5.15;;
56469;SDS011;42374;51.464;-2.590;2022-09-29T18:40:55;7.60;;;5.13;;
56469;SDS011;42374;51.464;-2.590;2022-09-29T18:46:08;10.40;;;6.72;;
56469;SDS011;42374;51.464;-2.590;2022-09-29T18:48:34;11.18;;;6.88;;
56469;SDS011;42374;51.464;-2.590;2022-09-29T18:51:00;7.47;;;5.10;;
56469;SDS011;42374;51.464;-2.590;2022-09-29T18:53:27;17.42;;;10.82;;
56469;SDS011;42374;51.464;-2.590;2022-09-29T18:55:54;19.00;;;11.60;;
56469;SDS011;42374;51.464;-2.590;2022-09-29T18:58:22;13.98;;;9.52;;
56469;SDS011;42374;51.464;-2.590;2022-09-29T19:00:50;8.63;;;5.97;;
56469;SDS011;42374;51.464;-2.590;2022-09-29T19:06:11;8.77;;;6.05;;
56469;SDS011;42374;51.464;-2.590;2022-09-29T19:08:39;9.32;;;6.82;;
56469;SDS011;42374;51.464;-2.590;2022-09-29T19:11:11;10.25;;;6.13;;
56469;SDS011;42374;51.464;-2.590;2022-09-29T19:13:40;13.00;;;8.27;;
56469;SDS011;42374;51.464;-2.590;2022-09-29T19:16:07;9.15;;;7.50;;
56469;SDS011;42374;51.464;-2.590;2022-09-29T19:18:34;8.55;;;6.70;;
56469;SDS011;42374;51.464;-2.590;2022-09-29T19:21:00;10.55;;;8.30;;
56469;SDS011;42374;51.464;-2.590;2022-09-29T19:26:16;13.70;;;9.88;;
56469;SDS011;42374;51.464;-2.590;2022-09-29T19:28:43;13.60;;;9.45;;
56469;SDS011;42374;51.464;-2.590;2022-09-29T19:31:11;10.07;;;8.75;;
56469;SDS011;42374;51.464;-2.590;2022-09-29T19:33:39;13.32;;;10.95;;
56469;SDS011;42374;51.464;-2.590;2022-09-29T19:36:06;13.45;;;10.52;;
56469;SDS011;42374;51.464;-2.590;2022-09-29T19:38:33;10.35;;;8.75;;
56469;SDS011;42374;51.464;-2.590;2022-09-29T19:41:00;12.77;;;10.15;;
56469;SDS011;42374;51.464;-2.590;2022-09-29T19:43:30;17.65;;;10.48;;
56469;SDS011;42374;51.464;-2.590;2022-09-29T19:45:56;17.40;;;12.52;;
56469;SDS011;42374;51.464;-2.590;2022-09-29T19:48:22;37.33;;;19.38;;
56469;SDS011;42374;51.464;-2.590;2022-09-29T19:50:55;22.05;;;12.40;;
56469;SDS011;42374;51.464;-2.590;2022-09-29T19:53:41;19.75;;;12.35;;
56469;SDS011;42374;51.464;-2.590;2022-09-29T19:56:10;16.48;;;10.35;;
56469;SDS011;42374;51.464;-2.590;2022-09-29T19:58:37;13.40;;;10.20;;